createdAt,value
2023-05-22T00:01:27.623Z,20.49
2023-05-22T00:06:24.451Z,20.23
2023-05-22T00:11:21.808Z,20.07
2023-05-22T00:16:18.439Z,20.14
2023-05-22T00:21:16.840Z,20.03
2023-05-22T00:26:14.636Z,19.82
2023-05-22T00:31:12.027Z,19.76
2023-05-22T00:36:08.876Z,19.83
2023-05-22T00:41:06.386Z,19.95
2023-05-22T00:46:03.132Z,19.91
2023-05-22T00:51:00.686Z,19.98
2023-05-22T00:56:01.280Z,19.64
2023-05-22T01:00:58.459Z,19.62
2023-05-22T01:05:56.946Z,19.66
2023-05-22T01:10:58.042Z,19.35
2023-05-22T01:15:57.150Z,19.39
2023-05-22T01:20:59.732Z,19.49
2023-05-22T01:26:15.097Z,19.78
2023-05-22T01:31:18.972Z,19.90
2023-05-22T01:36:19.524Z,20.09
2023-05-22T01:41:16.470Z,20.25
2023-05-22T01:46:13.922Z,20.40
2023-05-22T01:51:13.490Z,20.29
2023-05-22T01:56:12.706Z,20.27
2023-05-22T02:01:10.508Z,20.35
2023-05-22T02:06:10.105Z,20.41
2023-05-22T02:11:09.624Z,20.51
2023-05-22T02:16:06.636Z,20.66
2023-05-22T02:21:07.880Z,20.47
2023-05-22T02:26:05.763Z,20.49
2023-05-22T02:31:03.553Z,20.32
2023-05-22T02:36:00.278Z,20.50
2023-05-22T02:40:56.903Z,20.52
2023-05-22T02:45:54.271Z,20.43
2023-05-22T02:50:51.016Z,20.52
2023-05-22T02:55:47.849Z,20.47
2023-05-22T03:00:44.742Z,20.41
2023-05-22T03:05:42.729Z,20.59
2023-05-22T03:10:39.598Z,20.32
2023-05-22T03:15:37.258Z,20.48
2023-05-22T03:20:42.343Z,20.61
2023-05-22T03:25:39.128Z,20.58
2023-05-22T03:30:35.765Z,20.34
2023-05-22T03:35:43.913Z,20.40
2023-05-22T03:40:41.650Z,20.29
2023-05-22T03:45:39.508Z,20.13
2023-05-22T03:50:36.288Z,20.15
2023-05-22T03:55:33.700Z,20.22
2023-05-22T04:00:32.808Z,20.26
2023-05-22T04:05:29.777Z,20.26
2023-05-22T04:10:26.488Z,20.20
2023-05-22T04:15:23.914Z,20.32
2023-05-22T04:20:21.977Z,20.18
2023-05-22T04:25:20.532Z,20.33
2023-05-22T04:30:17.854Z,20.64
2023-05-22T04:35:18.272Z,20.61
2023-05-22T04:40:15.183Z,20.69
2023-05-22T04:45:13.424Z,20.90
2023-05-22T04:50:11.438Z,21.02
2023-05-22T04:55:12.021Z,21.03
2023-05-22T05:00:10.301Z,21.13
2023-05-22T05:05:08.509Z,20.87
2023-05-22T05:10:05.902Z,20.82
2023-05-22T05:15:03.656Z,20.57
2023-05-22T05:20:00.510Z,20.55
2023-05-22T05:24:57.726Z,20.83
2023-05-22T05:29:55.029Z,20.85
2023-05-22T05:34:57.053Z,20.94
2023-05-22T05:40:15.616Z,20.84
2023-05-22T05:45:17.836Z,20.75
2023-05-22T05:50:15.525Z,20.52
2023-05-22T05:55:12.983Z,20.69
2023-05-22T06:00:12.942Z,20.98
2023-05-22T06:05:12.882Z,21.07
2023-05-22T06:10:12.582Z,21.11
2023-05-22T06:15:22.375Z,21.15
2023-05-22T06:20:19.037Z,21.09
2023-05-22T06:25:16.676Z,21.16
2023-05-22T06:30:22.425Z,20.78
2023-05-22T06:35:26.269Z,20.70
2023-05-22T06:40:26.290Z,20.87
2023-05-22T06:45:28.577Z,20.52
2023-05-22T06:50:54.842Z,20.42
2023-05-22T06:55:53.698Z,19.98
2023-05-22T07:01:04.437Z,19.73
2023-05-22T07:06:10.100Z,19.55
2023-05-22T07:11:08.481Z,19.76
2023-05-22T07:16:05.875Z,19.46
2023-05-22T07:21:04.546Z,19.73
2023-05-22T07:26:01.658Z,19.73
2023-05-22T07:31:05.882Z,19.73
2023-05-22T07:36:02.889Z,20.19
2023-05-22T07:41:00.448Z,20.26
2023-05-22T07:46:02.592Z,20.65
2023-05-22T07:51:07.799Z,20.35
2023-05-22T07:56:05.221Z,20.33
2023-05-22T08:01:05.809Z,20.43
2023-05-22T08:06:06.039Z,21.01
2023-05-22T08:11:04.717Z,20.94
2023-05-22T08:16:01.946Z,20.82
2023-05-22T08:20:59.735Z,21.24
2023-05-22T08:25:58.256Z,21.49
2023-05-22T08:30:56.116Z,21.99
2023-05-22T08:35:53.311Z,22.23
2023-05-22T08:40:50.380Z,22.56
2023-05-22T08:45:48.169Z,22.82
2023-05-22T08:50:46.759Z,22.89
2023-05-22T08:55:48.319Z,23.01
2023-05-22T09:00:45.647Z,23.18
2023-05-22T09:05:42.495Z,23.30
2023-05-22T09:10:40.160Z,23.45
2023-05-22T09:15:37.501Z,23.58
2023-05-22T09:20:34.689Z,23.69
2023-05-22T09:25:54.548Z,23.82
2023-05-22T09:31:06.778Z,23.97
2023-05-22T09:36:20.278Z,24.09
2023-05-22T09:41:22.735Z,23.86
2023-05-22T09:46:20.237Z,23.95
2023-05-22T09:51:19.481Z,24.17
2023-05-22T09:56:24.239Z,24.06
2023-05-22T10:01:35.991Z,23.85
2023-05-22T10:06:35.419Z,24.11
2023-05-22T10:11:32.685Z,24.28
2023-05-22T10:16:29.908Z,24.51
2023-05-22T10:21:28.474Z,24.03
2023-05-22T10:26:25.986Z,24.29
2023-05-22T10:31:27.756Z,24.20
2023-05-22T10:36:37.196Z,24.36
2023-05-22T10:41:35.040Z,24.16
2023-05-22T10:46:32.828Z,24.01
2023-05-22T10:51:31.372Z,24.21
2023-05-22T10:56:33.072Z,24.23
2023-05-22T11:01:33.047Z,24.20
2023-05-22T11:06:38.189Z,24.43
2023-05-22T11:11:36.758Z,24.25
2023-05-22T11:16:34.520Z,24.59
2023-05-22T11:21:46.077Z,24.41
2023-05-22T11:26:43.010Z,24.39
2023-05-22T11:31:40.725Z,24.54
2023-05-22T11:36:38.424Z,24.16
2023-05-22T11:41:35.335Z,24.20
2023-05-22T11:46:32.429Z,24.04
2023-05-22T11:51:30.606Z,23.97
2023-05-22T11:56:27.340Z,24.16
2023-05-22T12:01:24.098Z,24.06
2023-05-22T12:06:20.875Z,23.98
2023-05-22T12:11:18.503Z,23.91
2023-05-22T12:16:19.277Z,23.85
2023-05-22T12:21:18.902Z,24.17
2023-05-22T12:26:15.637Z,24.14
2023-05-22T12:31:20.364Z,24.30
2023-05-22T12:36:20.866Z,24.37
2023-05-22T12:41:17.789Z,24.40
2023-05-22T12:46:15.570Z,24.47
2023-05-22T12:51:36.705Z,24.54
2023-05-22T12:56:39.941Z,24.52
2023-05-22T13:01:44.254Z,24.50
2023-05-22T13:06:44.042Z,24.64
2023-05-22T13:11:40.997Z,24.83
2023-05-22T13:16:38.672Z,24.88
2023-05-22T13:21:36.172Z,24.66
2023-05-22T13:26:33.389Z,24.78
2023-05-22T13:31:33.271Z,25.10
2023-05-22T13:36:31.204Z,25.15
2023-05-22T13:41:27.990Z,25.10
2023-05-22T13:46:24.864Z,25.17
2023-05-22T13:51:21.911Z,25.27
2023-05-22T13:56:19.565Z,25.07
2023-05-22T14:01:16.552Z,24.97
2023-05-22T14:06:14.442Z,24.84
2023-05-22T14:11:11.528Z,25.03
2023-05-22T14:16:09.121Z,25.29
2023-05-22T14:21:06.008Z,25.01
2023-05-22T14:26:02.810Z,25.00
2023-05-22T14:30:59.821Z,24.97
2023-05-22T14:35:58.798Z,24.86
2023-05-22T14:40:55.947Z,24.95
2023-05-22T14:45:54.108Z,25.09
2023-05-22T14:50:56.635Z,25.09
2023-05-22T14:55:57.971Z,24.88
2023-05-22T15:00:58.024Z,24.64
2023-05-22T15:05:55.079Z,24.66
2023-05-22T15:10:52.454Z,24.54
2023-05-22T15:15:50.191Z,24.64
2023-05-22T15:20:47.016Z,24.59
2023-05-22T15:25:44.355Z,24.60
2023-05-22T15:30:43.625Z,24.50
2023-05-22T15:35:42.154Z,24.76
2023-05-22T15:40:40.283Z,24.88
2023-05-22T15:45:37.148Z,24.72
2023-05-22T15:50:34.321Z,24.83
2023-05-22T15:55:34.153Z,24.60
2023-05-22T16:00:30.980Z,24.44
2023-05-22T16:05:27.760Z,24.47
2023-05-22T16:10:24.724Z,24.38
2023-05-22T16:15:22.812Z,24.50
2023-05-22T16:20:22.745Z,24.35
2023-05-22T16:25:19.827Z,24.51
2023-05-22T16:30:17.660Z,24.52
2023-05-22T16:35:15.194Z,24.54
2023-05-22T16:45:27.371Z,24.50
2023-05-22T16:50:24.768Z,24.33
2023-05-22T16:55:21.560Z,24.51
2023-05-22T17:00:18.990Z,24.61
2023-05-22T17:05:15.796Z,24.40
2023-05-22T17:10:13.516Z,24.47
2023-05-22T17:15:10.761Z,24.66
2023-05-22T17:20:09.500Z,24.63
2023-05-22T17:25:07.481Z,24.60
2023-05-22T17:30:06.620Z,24.60
2023-05-22T17:35:07.846Z,24.54
2023-05-22T17:40:06.100Z,24.51
2023-05-22T17:45:02.798Z,24.39
2023-05-22T17:50:00.352Z,24.44
2023-05-22T17:54:57.447Z,24.38
2023-05-22T17:59:54.320Z,24.01
2023-05-22T18:04:51.203Z,23.80
2023-05-22T18:09:49.960Z,23.59
2023-05-22T18:14:46.841Z,23.48
2023-05-22T18:19:43.745Z,23.77
2023-05-22T18:24:40.650Z,23.91
2023-05-22T18:29:38.964Z,23.95
2023-05-22T18:34:37.433Z,24.11
2023-05-22T18:39:34.825Z,24.25
2023-05-22T18:44:31.908Z,24.32
2023-05-22T18:49:29.387Z,24.32
2023-05-22T18:54:26.854Z,24.12
2023-05-22T18:59:23.793Z,24.12
2023-05-22T19:04:20.737Z,24.28
2023-05-22T19:09:18.349Z,24.02
2023-05-22T19:14:15.377Z,24.09
2023-05-22T19:19:12.456Z,24.20
2023-05-22T19:24:09.453Z,24.16
2023-05-22T19:29:06.984Z,24.25
2023-05-22T19:34:03.911Z,24.23
2023-05-22T19:39:00.812Z,23.66
2023-05-22T19:43:57.484Z,23.36
2023-05-22T19:48:54.757Z,22.77
2023-05-22T19:53:51.473Z,22.79
2023-05-22T19:58:48.134Z,23.20
2023-05-22T20:03:44.937Z,23.46
2023-05-22T20:08:43.627Z,23.55
2023-05-22T20:13:40.236Z,23.69
2023-05-22T20:18:37.873Z,23.78
2023-05-22T20:23:36.866Z,23.62
2023-05-22T20:28:34.444Z,23.82
2023-05-22T20:33:31.131Z,23.89
2023-05-22T20:38:28.702Z,23.86
2023-05-22T20:43:25.722Z,23.78
2023-05-22T20:48:22.968Z,23.78
2023-05-22T20:53:19.631Z,23.54
2023-05-22T20:58:16.462Z,23.62
2023-05-22T21:03:13.277Z,23.72
2023-05-22T21:08:10.739Z,23.67
2023-05-22T21:13:07.393Z,23.77
2023-05-22T21:18:04.076Z,23.84
2023-05-22T21:23:00.822Z,23.85
2023-05-22T21:27:58.265Z,23.67
2023-05-22T21:32:55.055Z,23.42
2023-05-22T21:37:52.872Z,23.47
2023-05-22T21:42:49.546Z,23.52
2023-05-22T21:47:47.004Z,23.25
2023-05-22T21:52:46.646Z,23.06
2023-05-22T21:57:44.965Z,22.64
2023-05-22T22:02:41.785Z,22.61
2023-05-22T22:07:39.191Z,22.66
2023-05-22T22:12:35.847Z,22.33
2023-05-22T22:17:34.069Z,21.67
2023-05-22T22:22:30.736Z,21.33
2023-05-22T22:27:27.929Z,21.71
2023-05-22T22:32:24.690Z,21.77
2023-05-22T22:37:22.698Z,21.63
2023-05-22T22:42:19.391Z,21.41
2023-05-22T22:47:16.708Z,21.52
2023-05-22T22:52:13.688Z,21.37
2023-05-22T22:57:10.420Z,20.87
2023-05-22T23:02:07.586Z,21.33
2023-05-22T23:07:05.556Z,21.71
2023-05-22T23:12:02.513Z,22.00
2023-05-22T23:16:59.167Z,22.04
2023-05-22T23:21:55.843Z,22.19
2023-05-22T23:26:53.234Z,22.38
2023-05-22T23:31:50.120Z,22.24
2023-05-22T23:36:46.816Z,22.48
2023-05-22T23:41:44.147Z,22.51
2023-05-22T23:46:42.717Z,22.40
2023-05-22T23:51:39.377Z,22.21
2023-05-22T23:56:36.167Z,22.16
